sensor_id;sensor_type;location;lat;lon;timestamp;temperature;humidity
7204;DHT22;3643;52.460;13.322;2022-07-22T00:00:08;19.60;99.90
7204;DHT22;3643;52.460;13.322;2022-07-22T00:02:36;19.60;99.90
7204;DHT22;3643;52.460;13.322;2022-07-22T00:05:08;19.60;99.90
7204;DHT22;3643;52.460;13.322;2022-07-22T00:07:38;19.60;99.90
7204;DHT22;3643;52.460;13.322;2022-07-22T00:10:09;19.60;99.90
7204;DHT22;3643;52.460;13.322;2022-07-22T00:12:38;19.70;99.90
7204;DHT22;3643;52.460;13.322;2022-07-22T00:15:09;19.70;99.90
7204;DHT22;3643;52.460;13.322;2022-07-22T00:17:38;19.70;99.90
7204;DHT22;3643;52.460;13.322;2022-07-22T00:20:09;19.70;99.90
7204;DHT22;3643;52.460;13.322;2022-07-22T00:22:38;19.80;99.90
7204;DHT22;3643;52.460;13.322;2022-07-22T00:25:07;19.80;99.90
7204;DHT22;3643;52.460;13.322;2022-07-22T00:27:36;19.80;99.90
7204;DHT22;3643;52.460;13.322;2022-07-22T00:30:05;19.80;99.90
7204;DHT22;3643;52.460;13.322;2022-07-22T00:32:36;19.80;99.90
7204;DHT22;3643;52.460;13.322;2022-07-22T00:35:07;19.80;99.90
7204;DHT22;3643;52.460;13.322;2022-07-22T00:37:37;19.90;99.90
7204;DHT22;3643;52.460;13.322;2022-07-22T00:40:07;19.90;99.90
7204;DHT22;3643;52.460;13.322;2022-07-22T00:42:36;19.90;99.90
7204;DHT22;3643;52.460;13.322;2022-07-22T00:45:06;19.90;99.90
7204;DHT22;3643;52.460;13.322;2022-07-22T00:47:35;19.90;99.90
7204;DHT22;3643;52.460;13.322;2022-07-22T00:50:05;19.90;99.90
7204;DHT22;3643;52.460;13.322;2022-07-22T00:52:35;19.90;99.90
7204;DHT22;3643;52.460;13.322;2022-07-22T00:55:06;19.90;99.90
7204;DHT22;3643;52.460;13.322;2022-07-22T00:57:34;19.90;99.90
7204;DHT22;3643;52.460;13.322;2022-07-22T01:00:05;19.90;99.90
7204;DHT22;3643;52.460;13.322;2022-07-22T01:02:35;19.90;99.90
7204;DHT22;3643;52.460;13.322;2022-07-22T01:05:05;19.80;99.90
7204;DHT22;3643;52.460;13.322;2022-07-22T01:07:36;19.80;99.90
7204;DHT22;3643;52.460;13.322;2022-07-22T01:10:06;19.80;99.90
7204;DHT22;3643;52.460;13.322;2022-07-22T01:12:35;19.80;99.90
7204;DHT22;3643;52.460;13.322;2022-07-22T01:15:05;19.70;99.90
7204;DHT22;3643;52.460;13.322;2022-07-22T01:17:34;19.70;99.90
7204;DHT22;3643;52.460;13.322;2022-07-22T01:20:06;19.70;99.90
7204;DHT22;3643;52.460;13.322;2022-07-22T01:22:35;19.70;99.90
7204;DHT22;3643;52.460;13.322;2022-07-22T01:25:04;19.70;99.90
7204;DHT22;3643;52.460;13.322;2022-07-22T01:27:33;19.70;99.90
7204;DHT22;3643;52.460;13.322;2022-07-22T01:30:02;19.70;99.90
7204;DHT22;3643;52.460;13.322;2022-07-22T01:32:32;19.70;99.90
7204;DHT22;3643;52.460;13.322;2022-07-22T01:35:00;19.70;99.90
7204;DHT22;3643;52.460;13.322;2022-07-22T01:37:32;19.70;99.90
7204;DHT22;3643;52.460;13.322;2022-07-22T01:40:01;19.70;99.90
7204;DHT22;3643;52.460;13.322;2022-07-22T01:42:32;19.60;99.90
7204;DHT22;3643;52.460;13.322;2022-07-22T01:45:00;19.60;99.90
7204;DHT22;3643;52.460;13.322;2022-07-22T01:47:29;19.50;99.90
7204;DHT22;3643;52.460;13.322;2022-07-22T01:49:57;19.50;99.90
7204;DHT22;3643;52.460;13.322;2022-07-22T01:52:26;19.50;99.90
7204;DHT22;3643;52.460;13.322;2022-07-22T01:54:55;19.50;99.90
7204;DHT22;3643;52.460;13.322;2022-07-22T01:57:24;19.50;99.90
7204;DHT22;3643;52.460;13.322;2022-07-22T01:59:52;19.50;99.90
7204;DHT22;3643;52.460;13.322;2022-07-22T02:02:21;19.40;99.90
7204;DHT22;3643;52.460;13.322;2022-07-22T02:04:49;19.40;99.90
7204;DHT22;3643;52.460;13.322;2022-07-22T02:07:18;19.40;99.90
7204;DHT22;3643;52.460;13.322;2022-07-22T02:09:47;19.30;99.90
7204;DHT22;3643;52.460;13.322;2022-07-22T02:12:18;20.20;99.90
7204;DHT22;3643;52.460;13.322;2022-07-22T02:14:47;19.30;99.90
7204;DHT22;3643;52.460;13.322;2022-07-22T02:17:15;19.20;99.90
7204;DHT22;3643;52.460;13.322;2022-07-22T02:19:44;19.20;99.90
7204;DHT22;3643;52.460;13.322;2022-07-22T02:22:13;19.20;99.90
7204;DHT22;3643;52.460;13.322;2022-07-22T02:24:42;19.10;99.90
7204;DHT22;3643;52.460;13.322;2022-07-22T02:27:11;19.10;99.90
7204;DHT22;3643;52.460;13.322;2022-07-22T02:29:41;19.10;99.90
7204;DHT22;3643;52.460;13.322;2022-07-22T02:32:09;19.00;99.90
7204;DHT22;3643;52.460;13.322;2022-07-22T02:34:38;19.00;99.90
7204;DHT22;3643;52.460;13.322;2022-07-22T02:37:06;19.00;99.90
7204;DHT22;3643;52.460;13.322;2022-07-22T02:39:36;18.90;99.90
7204;DHT22;3643;52.460;13.322;2022-07-22T02:42:04;18.90;99.90
7204;DHT22;3643;52.460;13.322;2022-07-22T02:44:33;18.90;99.90
7204;DHT22;3643;52.460;13.322;2022-07-22T02:47:03;18.90;99.90
7204;DHT22;3643;52.460;13.322;2022-07-22T02:49:33;18.90;99.90
7204;DHT22;3643;52.460;13.322;2022-07-22T02:52:02;18.90;99.90
7204;DHT22;3643;52.460;13.322;2022-07-22T02:54:30;18.80;99.90
7204;DHT22;3643;52.460;13.322;2022-07-22T02:56:59;18.80;99.90
7204;DHT22;3643;52.460;13.322;2022-07-22T02:59:27;18.80;99.90
7204;DHT22;3643;52.460;13.322;2022-07-22T03:01:56;18.80;99.90
7204;DHT22;3643;52.460;13.322;2022-07-22T03:04:26;18.80;99.90
7204;DHT22;3643;52.460;13.322;2022-07-22T03:06:54;18.70;99.90
7204;DHT22;3643;52.460;13.322;2022-07-22T03:09:22;18.70;99.90
7204;DHT22;3643;52.460;13.322;2022-07-22T03:11:51;18.70;99.90
7204;DHT22;3643;52.460;13.322;2022-07-22T03:14:19;18.70;99.90
7204;DHT22;3643;52.460;13.322;2022-07-22T03:16:49;18.70;99.90
7204;DHT22;3643;52.460;13.322;2022-07-22T03:19:19;18.70;99.90
7204;DHT22;3643;52.460;13.322;2022-07-22T03:21:49;18.60;99.90
7204;DHT22;3643;52.460;13.322;2022-07-22T03:24:17;18.60;99.90
7204;DHT22;3643;52.460;13.322;2022-07-22T03:26:46;18.60;99.90
7204;DHT22;3643;52.460;13.322;2022-07-22T03:29:14;18.50;99.90
7204;DHT22;3643;52.460;13.322;2022-07-22T03:31:43;18.50;99.90
7204;DHT22;3643;52.460;13.322;2022-07-22T03:34:11;18.50;99.90
7204;DHT22;3643;52.460;13.322;2022-07-22T03:36:40;18.50;99.90
7204;DHT22;3643;52.460;13.322;2022-07-22T03:39:10;18.40;99.90
7204;DHT22;3643;52.460;13.322;2022-07-22T03:41:39;18.50;99.90
7204;DHT22;3643;52.460;13.322;2022-07-22T03:44:07;18.50;99.90
7204;DHT22;3643;52.460;13.322;2022-07-22T03:46:36;18.50;99.90
7204;DHT22;3643;52.460;13.322;2022-07-22T03:49:04;18.50;99.90
7204;DHT22;3643;52.460;13.322;2022-07-22T03:51:33;18.60;99.90
7204;DHT22;3643;52.460;13.322;2022-07-22T03:54:02;18.70;99.90
7204;DHT22;3643;52.460;13.322;2022-07-22T03:56:32;18.80;99.90
7204;DHT22;3643;52.460;13.322;2022-07-22T03:59:01;18.90;99.90
7204;DHT22;3643;52.460;13.322;2022-07-22T04:01:29;18.90;99.90
7204;DHT22;3643;52.460;13.322;2022-07-22T04:03:58;18.90;99.90
7204;DHT22;3643;52.460;13.322;2022-07-22T04:06:30;19.00;99.90
7204;DHT22;3643;52.460;13.322;2022-07-22T04:08:59;19.00;99.90
7204;DHT22;3643;52.460;13.322;2022-07-22T04:11:28;19.00;99.90
7204;DHT22;3643;52.460;13.322;2022-07-22T04:13:58;19.10;99.90
7204;DHT22;3643;52.460;13.322;2022-07-22T04:16:27;19.10;99.90
7204;DHT22;3643;52.460;13.322;2022-07-22T04:18:55;19.10;99.90
7204;DHT22;3643;52.460;13.322;2022-07-22T04:21:25;19.10;99.90
7204;DHT22;3643;52.460;13.322;2022-07-22T04:23:54;19.10;99.90
7204;DHT22;3643;52.460;13.322;2022-07-22T04:26:28;19.10;99.90
7204;DHT22;3643;52.460;13.322;2022-07-22T04:28:58;19.20;99.90
7204;DHT22;3643;52.460;13.322;2022-07-22T04:31:27;19.20;99.90
7204;DHT22;3643;52.460;13.322;2022-07-22T04:33:56;19.30;99.90
7204;DHT22;3643;52.460;13.322;2022-07-22T04:36:25;19.30;99.90
7204;DHT22;3643;52.460;13.322;2022-07-22T04:38:53;19.50;99.90
7204;DHT22;3643;52.460;13.322;2022-07-22T04:41:22;19.50;99.90
7204;DHT22;3643;52.460;13.322;2022-07-22T04:43:50;19.50;99.90
7204;DHT22;3643;52.460;13.322;2022-07-22T04:46:20;19.50;99.90
7204;DHT22;3643;52.460;13.322;2022-07-22T04:48:49;19.60;99.90
7204;DHT22;3643;52.460;13.322;2022-07-22T04:51:17;19.60;99.90
7204;DHT22;3643;52.460;13.322;2022-07-22T04:53:46;19.70;99.90
7204;DHT22;3643;52.460;13.322;2022-07-22T04:56:16;19.70;99.90
7204;DHT22;3643;52.460;13.322;2022-07-22T04:58:45;19.70;99.90
7204;DHT22;3643;52.460;13.322;2022-07-22T05:01:13;19.80;99.90
7204;DHT22;3643;52.460;13.322;2022-07-22T05:03:43;19.90;99.90
7204;DHT22;3643;52.460;13.322;2022-07-22T05:06:12;19.90;99.90
7204;DHT22;3643;52.460;13.322;2022-07-22T05:08:41;19.90;99.90
7204;DHT22;3643;52.460;13.322;2022-07-22T05:11:09;20.00;99.90
7204;DHT22;3643;52.460;13.322;2022-07-22T05:13:38;20.00;99.90
7204;DHT22;3643;52.460;13.322;2022-07-22T05:16:08;20.10;99.90
7204;DHT22;3643;52.460;13.322;2022-07-22T05:18:36;20.10;99.90
7204;DHT22;3643;52.460;13.322;2022-07-22T05:21:06;20.20;99.90
7204;DHT22;3643;52.460;13.322;2022-07-22T05:23:35;20.40;99.90
7204;DHT22;3643;52.460;13.322;2022-07-22T05:26:05;20.50;99.90
7204;DHT22;3643;52.460;13.322;2022-07-22T05:28:33;20.60;99.90
7204;DHT22;3643;52.460;13.322;2022-07-22T05:31:02;20.80;99.90
7204;DHT22;3643;52.460;13.322;2022-07-22T05:33:30;20.90;99.90
7204;DHT22;3643;52.460;13.322;2022-07-22T05:35:59;21.10;99.90
7204;DHT22;3643;52.460;13.322;2022-07-22T05:38:32;21.20;99.90
7204;DHT22;3643;52.460;13.322;2022-07-22T05:41:00;20.90;99.90
7204;DHT22;3643;52.460;13.322;2022-07-22T05:43:29;20.80;99.90
7204;DHT22;3643;52.460;13.322;2022-07-22T05:45:59;20.70;99.90
7204;DHT22;3643;52.460;13.322;2022-07-22T05:48:28;20.80;99.90
7204;DHT22;3643;52.460;13.322;2022-07-22T05:50:56;20.90;99.90
7204;DHT22;3643;52.460;13.322;2022-07-22T05:53:25;20.80;99.90
7204;DHT22;3643;52.460;13.322;2022-07-22T05:55:55;21.00;99.90
7204;DHT22;3643;52.460;13.322;2022-07-22T05:58:30;21.10;99.90
7204;DHT22;3643;52.460;13.322;2022-07-22T06:00:58;21.00;99.90
7204;DHT22;3643;52.460;13.322;2022-07-22T06:03:27;21.10;99.90
7204;DHT22;3643;52.460;13.322;2022-07-22T06:05:55;21.10;99.90
7204;DHT22;3643;52.460;13.322;2022-07-22T06:08:24;21.30;99.90
7204;DHT22;3643;52.460;13.322;2022-07-22T06:10:52;21.30;99.90
7204;DHT22;3643;52.460;13.322;2022-07-22T06:13:22;21.40;99.90
7204;DHT22;3643;52.460;13.322;2022-07-22T06:15:52;21.70;99.90
7204;DHT22;3643;52.460;13.322;2022-07-22T06:18:20;21.90;99.90
7204;DHT22;3643;52.460;13.322;2022-07-22T06:20:49;22.00;99.90
7204;DHT22;3643;52.460;13.322;2022-07-22T06:23:18;22.00;99.90
7204;DHT22;3643;52.460;13.322;2022-07-22T06:25:46;22.10;99.90
7204;DHT22;3643;52.460;13.322;2022-07-22T06:28:14;22.10;99.90
7204;DHT22;3643;52.460;13.322;2022-07-22T06:30:44;22.10;99.90
7204;DHT22;3643;52.460;13.322;2022-07-22T06:33:13;21.90;99.90
7204;DHT22;3643;52.460;13.322;2022-07-22T06:35:41;21.90;99.90
7204;DHT22;3643;52.460;13.322;2022-07-22T06:38:10;22.20;99.90
7204;DHT22;3643;52.460;13.322;2022-07-22T06:40:55;22.50;99.90
7204;DHT22;3643;52.460;13.322;2022-07-22T06:43:23;22.70;99.90
7204;DHT22;3643;52.460;13.322;2022-07-22T06:45:53;22.70;99.90
7204;DHT22;3643;52.460;13.322;2022-07-22T06:48:22;22.60;99.90
7204;DHT22;3643;52.460;13.322;2022-07-22T06:50:50;23.10;99.90
7204;DHT22;3643;52.460;13.322;2022-07-22T06:53:22;23.20;99.90
7204;DHT22;3643;52.460;13.322;2022-07-22T06:55:56;22.70;99.90
7204;DHT22;3643;52.460;13.322;2022-07-22T06:58:32;22.90;99.90
7204;DHT22;3643;52.460;13.322;2022-07-22T07:01:02;23.40;99.90
7204;DHT22;3643;52.460;13.322;2022-07-22T07:03:30;23.70;99.90
7204;DHT22;3643;52.460;13.322;2022-07-22T07:06:03;24.00;99.90
7204;DHT22;3643;52.460;13.322;2022-07-22T07:08:32;23.80;99.90
7204;DHT22;3643;52.460;13.322;2022-07-22T07:11:01;24.10;99.90
7204;DHT22;3643;52.460;13.322;2022-07-22T07:13:30;25.30;99.90
7204;DHT22;3643;52.460;13.322;2022-07-22T07:15:58;25.40;99.90
7204;DHT22;3643;52.460;13.322;2022-07-22T07:18:28;26.60;99.90
7204;DHT22;3643;52.460;13.322;2022-07-22T07:20:57;28.30;99.90
7204;DHT22;3643;52.460;13.322;2022-07-22T07:23:27;29.80;99.90
7204;DHT22;3643;52.460;13.322;2022-07-22T07:25:56;31.60;99.90
7204;DHT22;3643;52.460;13.322;2022-07-22T07:28:24;31.50;98.30
7204;DHT22;3643;52.460;13.322;2022-07-22T07:30:53;30.30;98.40
7204;DHT22;3643;52.460;13.322;2022-07-22T07:33:22;29.50;99.10
7204;DHT22;3643;52.460;13.322;2022-07-22T07:35:52;30.30;99.10
7204;DHT22;3643;52.460;13.322;2022-07-22T07:38:20;30.60;98.60
7204;DHT22;3643;52.460;13.322;2022-07-22T07:40:50;30.90;97.70
7204;DHT22;3643;52.460;13.322;2022-07-22T07:43:18;31.50;97.60
7204;DHT22;3643;52.460;13.322;2022-07-22T07:45:47;32.10;97.10
7204;DHT22;3643;52.460;13.322;2022-07-22T07:48:16;33.10;96.50
7204;DHT22;3643;52.460;13.322;2022-07-22T07:50:48;32.60;96.10
7204;DHT22;3643;52.460;13.322;2022-07-22T07:53:19;31.80;95.90
7204;DHT22;3643;52.460;13.322;2022-07-22T07:55:49;31.90;96.10
7204;DHT22;3643;52.460;13.322;2022-07-22T07:58:18;31.80;96.00
7204;DHT22;3643;52.460;13.322;2022-07-22T08:00:48;31.00;96.50
7204;DHT22;3643;52.460;13.322;2022-07-22T08:03:18;30.80;96.40
7204;DHT22;3643;52.460;13.322;2022-07-22T08:05:48;30.50;96.50
7204;DHT22;3643;52.460;13.322;2022-07-22T08:08:25;30.90;97.10
7204;DHT22;3643;52.460;13.322;2022-07-22T08:10:58;29.20;97.30
7204;DHT22;3643;52.460;13.322;2022-07-22T08:13:27;29.20;99.00
7204;DHT22;3643;52.460;13.322;2022-07-22T08:15:56;29.30;97.80
7204;DHT22;3643;52.460;13.322;2022-07-22T08:18:25;30.30;97.60
7204;DHT22;3643;52.460;13.322;2022-07-22T08:20:54;31.50;96.10
7204;DHT22;3643;52.460;13.322;2022-07-22T08:23:27;32.10;95.10
7204;DHT22;3643;52.460;13.322;2022-07-22T08:25:56;32.40;94.90
7204;DHT22;3643;52.460;13.322;2022-07-22T08:28:25;31.80;94.70
7204;DHT22;3643;52.460;13.322;2022-07-22T08:30:54;32.10;94.30
7204;DHT22;3643;52.460;13.322;2022-07-22T08:33:23;30.70;95.50
7204;DHT22;3643;52.460;13.322;2022-07-22T08:35:51;30.70;95.60
7204;DHT22;3643;52.460;13.322;2022-07-22T08:38:20;30.20;95.80
7204;DHT22;3643;52.460;13.322;2022-07-22T08:40:53;29.50;96.30
7204;DHT22;3643;52.460;13.322;2022-07-22T08:43:30;29.00;96.80
7204;DHT22;3643;52.460;13.322;2022-07-22T08:45:59;28.50;97.10
7204;DHT22;3643;52.460;13.322;2022-07-22T08:48:28;27.10;98.10
7204;DHT22;3643;52.460;13.322;2022-07-22T08:50:56;26.30;99.10
7204;DHT22;3643;52.460;13.322;2022-07-22T08:53:25;25.70;99.90
7204;DHT22;3643;52.460;13.322;2022-07-22T08:55:55;25.40;99.90
7204;DHT22;3643;52.460;13.322;2022-07-22T08:58:23;25.20;99.90
7204;DHT22;3643;52.460;13.322;2022-07-22T09:01:05;24.60;99.90
7204;DHT22;3643;52.460;13.322;2022-07-22T09:03:44;24.50;99.90
7204;DHT22;3643;52.460;13.322;2022-07-22T09:06:13;24.20;99.90
7204;DHT22;3643;52.460;13.322;2022-07-22T09:08:54;23.80;99.90
7204;DHT22;3643;52.460;13.322;2022-07-22T09:11:25;23.80;99.90
7204;DHT22;3643;52.460;13.322;2022-07-22T09:13:56;24.00;99.90
7204;DHT22;3643;52.460;13.322;2022-07-22T09:16:39;24.40;99.90
7204;DHT22;3643;52.460;13.322;2022-07-22T09:19:08;24.50;99.90
7204;DHT22;3643;52.460;13.322;2022-07-22T09:21:38;24.80;99.90
7204;DHT22;3643;52.460;13.322;2022-07-22T09:24:07;25.00;99.90
7204;DHT22;3643;52.460;13.322;2022-07-22T09:26:38;25.10;99.90
7204;DHT22;3643;52.460;13.322;2022-07-22T09:29:08;24.90;99.90
7204;DHT22;3643;52.460;13.322;2022-07-22T09:31:39;24.60;99.90
7204;DHT22;3643;52.460;13.322;2022-07-22T09:34:08;24.30;99.90
7204;DHT22;3643;52.460;13.322;2022-07-22T09:36:54;24.20;99.90
7204;DHT22;3643;52.460;13.322;2022-07-22T09:39:27;24.00;99.90
7204;DHT22;3643;52.460;13.322;2022-07-22T09:42:01;23.80;99.90
7204;DHT22;3643;52.460;13.322;2022-07-22T09:44:30;23.90;99.90
7204;DHT22;3643;52.460;13.322;2022-07-22T09:46:58;24.20;99.90
7204;DHT22;3643;52.460;13.322;2022-07-22T09:49:31;24.50;99.90
7204;DHT22;3643;52.460;13.322;2022-07-22T09:52:00;24.70;99.90
7204;DHT22;3643;52.460;13.322;2022-07-22T09:54:30;24.60;99.90
7204;DHT22;3643;52.460;13.322;2022-07-22T09:57:00;24.50;99.90
7204;DHT22;3643;52.460;13.322;2022-07-22T09:59:28;24.60;99.90
7204;DHT22;3643;52.460;13.322;2022-07-22T10:01:59;24.60;99.90
7204;DHT22;3643;52.460;13.322;2022-07-22T10:04:33;24.70;99.90
7204;DHT22;3643;52.460;13.322;2022-07-22T10:07:03;24.70;99.90
7204;DHT22;3643;52.460;13.322;2022-07-22T10:09:35;24.80;99.90
7204;DHT22;3643;52.460;13.322;2022-07-22T10:12:07;24.70;99.90
7204;DHT22;3643;52.460;13.322;2022-07-22T10:14:37;24.90;99.90
7204;DHT22;3643;52.460;13.322;2022-07-22T10:17:07;25.10;99.90
7204;DHT22;3643;52.460;13.322;2022-07-22T10:19:36;25.60;99.90
7204;DHT22;3643;52.460;13.322;2022-07-22T10:22:05;25.70;99.90
7204;DHT22;3643;52.460;13.322;2022-07-22T10:25:00;26.00;99.90
7204;DHT22;3643;52.460;13.322;2022-07-22T10:30:27;26.60;99.90
7204;DHT22;3643;52.460;13.322;2022-07-22T10:33:04;26.50;99.90
7204;DHT22;3643;52.460;13.322;2022-07-22T10:35:36;26.10;99.90
7204;DHT22;3643;52.460;13.322;2022-07-22T10:38:07;26.30;99.90
7204;DHT22;3643;52.460;13.322;2022-07-22T10:40:51;26.50;99.90
7204;DHT22;3643;52.460;13.322;2022-07-22T10:43:21;26.70;99.90
7204;DHT22;3643;52.460;13.322;2022-07-22T10:45:54;26.80;99.90
7204;DHT22;3643;52.460;13.322;2022-07-22T10:48:25;27.00;99.90
7204;DHT22;3643;52.460;13.322;2022-07-22T10:51:12;26.70;99.90
7204;DHT22;3643;52.460;13.322;2022-07-22T10:53:47;26.40;99.90
7204;DHT22;3643;52.460;13.322;2022-07-22T10:56:18;26.30;99.90
7204;DHT22;3643;52.460;13.322;2022-07-22T10:58:49;26.40;99.90
7204;DHT22;3643;52.460;13.322;2022-07-22T11:01:22;26.30;99.90
7204;DHT22;3643;52.460;13.322;2022-07-22T11:03:52;26.10;99.90
7204;DHT22;3643;52.460;13.322;2022-07-22T11:06:28;26.00;99.90
7204;DHT22;3643;52.460;13.322;2022-07-22T11:08:59;25.50;99.90
7204;DHT22;3643;52.460;13.322;2022-07-22T11:11:32;25.50;99.90
7204;DHT22;3643;52.460;13.322;2022-07-22T11:14:01;25.60;99.90
7204;DHT22;3643;52.460;13.322;2022-07-22T11:16:31;26.70;99.90
7204;DHT22;3643;52.460;13.322;2022-07-22T11:19:02;25.80;99.90
7204;DHT22;3643;52.460;13.322;2022-07-22T11:21:32;25.90;99.90
7204;DHT22;3643;52.460;13.322;2022-07-22T11:24:10;25.70;99.90
7204;DHT22;3643;52.460;13.322;2022-07-22T11:26:43;25.50;99.90
7204;DHT22;3643;52.460;13.322;2022-07-22T11:29:16;25.70;99.90
7204;DHT22;3643;52.460;13.322;2022-07-22T11:31:47;25.70;99.90
7204;DHT22;3643;52.460;13.322;2022-07-22T11:34:16;26.10;99.90
7204;DHT22;3643;52.460;13.322;2022-07-22T11:36:45;26.00;99.90
7204;DHT22;3643;52.460;13.322;2022-07-22T11:39:18;26.20;99.90
7204;DHT22;3643;52.460;13.322;2022-07-22T11:41:47;26.30;99.90
7204;DHT22;3643;52.460;13.322;2022-07-22T11:44:18;26.20;99.90
7204;DHT22;3643;52.460;13.322;2022-07-22T11:46:48;26.50;99.90
7204;DHT22;3643;52.460;13.322;2022-07-22T11:49:19;26.80;99.90
7204;DHT22;3643;52.460;13.322;2022-07-22T11:51:48;26.90;99.90
7204;DHT22;3643;52.460;13.322;2022-07-22T11:54:17;26.80;99.90
7204;DHT22;3643;52.460;13.322;2022-07-22T11:56:47;26.70;99.90
7204;DHT22;3643;52.460;13.322;2022-07-22T11:59:23;26.70;99.90
7204;DHT22;3643;52.460;13.322;2022-07-22T12:01:53;26.70;99.90
7204;DHT22;3643;52.460;13.322;2022-07-22T12:04:23;26.80;99.90
7204;DHT22;3643;52.460;13.322;2022-07-22T12:06:53;26.80;99.90
7204;DHT22;3643;52.460;13.322;2022-07-22T12:09:23;27.10;99.90
7204;DHT22;3643;52.460;13.322;2022-07-22T12:11:54;27.20;99.90
7204;DHT22;3643;52.460;13.322;2022-07-22T12:14:28;27.00;99.90
7204;DHT22;3643;52.460;13.322;2022-07-22T12:17:02;25.60;99.60
7204;DHT22;3643;52.460;13.322;2022-07-22T12:19:33;26.60;99.80
7204;DHT22;3643;52.460;13.322;2022-07-22T12:22:03;26.40;99.90
7204;DHT22;3643;52.460;13.322;2022-07-22T12:24:33;26.40;99.90
7204;DHT22;3643;52.460;13.322;2022-07-22T12:27:04;26.40;99.90
7204;DHT22;3643;52.460;13.322;2022-07-22T12:29:42;26.40;99.90
7204;DHT22;3643;52.460;13.322;2022-07-22T12:32:17;26.40;99.90
7204;DHT22;3643;52.460;13.322;2022-07-22T12:34:56;26.50;99.90
7204;DHT22;3643;52.460;13.322;2022-07-22T12:37:26;26.50;99.90
7204;DHT22;3643;52.460;13.322;2022-07-22T12:39:57;26.60;99.80
7204;DHT22;3643;52.460;13.322;2022-07-22T12:42:27;26.70;99.90
7204;DHT22;3643;52.460;13.322;2022-07-22T12:45:01;26.80;99.60
7204;DHT22;3643;52.460;13.322;2022-07-22T12:47:42;26.80;99.60
7204;DHT22;3643;52.460;13.322;2022-07-22T12:50:20;26.70;99.80
7204;DHT22;3643;52.460;13.322;2022-07-22T12:52:49;26.70;99.80
7204;DHT22;3643;52.460;13.322;2022-07-22T12:55:43;26.40;99.80
7204;DHT22;3643;52.460;13.322;2022-07-22T12:58:13;26.30;99.90
7204;DHT22;3643;52.460;13.322;2022-07-22T13:00:45;26.30;99.90
7204;DHT22;3643;52.460;13.322;2022-07-22T13:03:17;26.30;99.90
7204;DHT22;3643;52.460;13.322;2022-07-22T13:05:47;26.30;99.90
7204;DHT22;3643;52.460;13.322;2022-07-22T13:08:16;26.10;99.90
7204;DHT22;3643;52.460;13.322;2022-07-22T13:10:48;25.90;99.90
7204;DHT22;3643;52.460;13.322;2022-07-22T13:13:16;25.70;99.90
7204;DHT22;3643;52.460;13.322;2022-07-22T13:15:45;25.70;99.90
7204;DHT22;3643;52.460;13.322;2022-07-22T13:18:14;25.80;99.90
7204;DHT22;3643;52.460;13.322;2022-07-22T13:20:44;25.40;99.90
7204;DHT22;3643;52.460;13.322;2022-07-22T13:23:13;25.20;99.90
7204;DHT22;3643;52.460;13.322;2022-07-22T13:25:42;25.10;99.90
7204;DHT22;3643;52.460;13.322;2022-07-22T13:28:11;25.20;99.90
7204;DHT22;3643;52.460;13.322;2022-07-22T13:30:39;25.50;99.90
7204;DHT22;3643;52.460;13.322;2022-07-22T13:33:08;25.50;99.90
7204;DHT22;3643;52.460;13.322;2022-07-22T13:35:37;25.50;99.90
7204;DHT22;3643;52.460;13.322;2022-07-22T13:38:07;25.40;99.90
7204;DHT22;3643;52.460;13.322;2022-07-22T13:40:45;25.20;99.90
7204;DHT22;3643;52.460;13.322;2022-07-22T13:43:19;25.10;99.90
7204;DHT22;3643;52.460;13.322;2022-07-22T13:45:48;25.30;99.90
7204;DHT22;3643;52.460;13.322;2022-07-22T13:48:17;25.40;99.90
7204;DHT22;3643;52.460;13.322;2022-07-22T13:50:46;25.50;99.90
7204;DHT22;3643;52.460;13.322;2022-07-22T13:53:16;25.40;99.90
7204;DHT22;3643;52.460;13.322;2022-07-22T13:55:44;25.40;99.90
7204;DHT22;3643;52.460;13.322;2022-07-22T13:58:13;25.30;99.90
7204;DHT22;3643;52.460;13.322;2022-07-22T14:00:42;25.20;99.80
7204;DHT22;3643;52.460;13.322;2022-07-22T14:03:10;25.10;99.80
7204;DHT22;3643;52.460;13.322;2022-07-22T14:05:39;25.10;99.90
7204;DHT22;3643;52.460;13.322;2022-07-22T14:08:08;25.10;99.90
7204;DHT22;3643;52.460;13.322;2022-07-22T14:10:39;25.10;99.90
7204;DHT22;3643;52.460;13.322;2022-07-22T14:13:08;25.20;99.90
7204;DHT22;3643;52.460;13.322;2022-07-22T14:15:37;25.40;99.90
7204;DHT22;3643;52.460;13.322;2022-07-22T14:18:06;25.40;99.90
7204;DHT22;3643;52.460;13.322;2022-07-22T14:20:35;25.50;99.80
7204;DHT22;3643;52.460;13.322;2022-07-22T14:23:06;25.50;99.70
7204;DHT22;3643;52.460;13.322;2022-07-22T14:25:38;25.50;99.70
7204;DHT22;3643;52.460;13.322;2022-07-22T14:28:07;25.50;99.60
7204;DHT22;3643;52.460;13.322;2022-07-22T14:30:56;25.40;99.30
7204;DHT22;3643;52.460;13.322;2022-07-22T14:33:25;25.50;99.30
7204;DHT22;3643;52.460;13.322;2022-07-22T14:35:54;25.60;99.30
7204;DHT22;3643;52.460;13.322;2022-07-22T14:38:22;25.60;99.00
7204;DHT22;3643;52.460;13.322;2022-07-22T14:40:53;25.50;99.20
7204;DHT22;3643;52.460;13.322;2022-07-22T14:43:21;25.40;99.20
7204;DHT22;3643;52.460;13.322;2022-07-22T14:46:02;25.40;99.00
7204;DHT22;3643;52.460;13.322;2022-07-22T14:48:31;25.10;99.20
7204;DHT22;3643;52.460;13.322;2022-07-22T14:51:00;24.90;99.40
7204;DHT22;3643;52.460;13.322;2022-07-22T14:53:29;24.90;99.60
7204;DHT22;3643;52.460;13.322;2022-07-22T14:55:59;24.80;99.40
7204;DHT22;3643;52.460;13.322;2022-07-22T14:58:28;24.80;99.60
7204;DHT22;3643;52.460;13.322;2022-07-22T15:00:56;24.80;99.60
7204;DHT22;3643;52.460;13.322;2022-07-22T15:03:25;24.80;99.70
7204;DHT22;3643;52.460;13.322;2022-07-22T15:05:54;24.90;99.80
7204;DHT22;3643;52.460;13.322;2022-07-22T15:08:23;24.90;99.60
7204;DHT22;3643;52.460;13.322;2022-07-22T15:10:51;25.00;99.40
7204;DHT22;3643;52.460;13.322;2022-07-22T15:13:21;25.00;99.30
7204;DHT22;3643;52.460;13.322;2022-07-22T15:15:53;24.90;99.10
7204;DHT22;3643;52.460;13.322;2022-07-22T15:18:22;24.80;99.30
7204;DHT22;3643;52.460;13.322;2022-07-22T15:20:52;23.30;98.60
7204;DHT22;3643;52.460;13.322;2022-07-22T15:23:23;24.80;99.30
7204;DHT22;3643;52.460;13.322;2022-07-22T15:25:54;24.70;99.20
7204;DHT22;3643;52.460;13.322;2022-07-22T15:28:25;24.70;99.30
7204;DHT22;3643;52.460;13.322;2022-07-22T15:31:00;24.80;99.20
7204;DHT22;3643;52.460;13.322;2022-07-22T15:33:30;24.70;99.10
7204;DHT22;3643;52.460;13.322;2022-07-22T15:36:06;24.70;99.10
7204;DHT22;3643;52.460;13.322;2022-07-22T15:38:37;24.60;99.10
7204;DHT22;3643;52.460;13.322;2022-07-22T15:41:07;24.70;99.30
7204;DHT22;3643;52.460;13.322;2022-07-22T15:43:37;24.70;98.90
7204;DHT22;3643;52.460;13.322;2022-07-22T15:46:07;24.60;99.00
7204;DHT22;3643;52.460;13.322;2022-07-22T15:48:37;24.60;99.00
7204;DHT22;3643;52.460;13.322;2022-07-22T15:51:08;24.60;99.10
7204;DHT22;3643;52.460;13.322;2022-07-22T15:53:37;24.50;99.30
7204;DHT22;3643;52.460;13.322;2022-07-22T15:56:05;24.50;99.20
7204;DHT22;3643;52.460;13.322;2022-07-22T15:58:34;24.60;99.10
7204;DHT22;3643;52.460;13.322;2022-07-22T16:01:41;24.70;99.00
7204;DHT22;3643;52.460;13.322;2022-07-22T16:04:10;24.70;98.80
7204;DHT22;3643;52.460;13.322;2022-07-22T16:06:39;24.70;98.90